createdAt,value
2016-09-18T00:00:18.346Z,-48
2016-09-18T00:01:18.351Z,-48
2016-09-18T00:02:18.330Z,-48
2016-09-18T00:03:18.342Z,-48
2016-09-18T00:04:18.361Z,-48
2016-09-18T00:05:18.331Z,-48
2016-09-18T00:06:18.354Z,-48
2016-09-18T00:07:18.346Z,-48
2016-09-18T00:08:18.330Z,-49
2016-09-18T00:09:18.361Z,-47
2016-09-18T00:10:18.369Z,-49
2016-09-18T00:11:18.399Z,-50
2016-09-18T00:12:18.364Z,-49
2016-09-18T00:13:18.419Z,-49
2016-09-18T00:14:18.396Z,-50
2016-09-18T00:15:18.381Z,-50
2016-09-18T00:16:18.367Z,-50
2016-09-18T00:17:18.354Z,-50
2016-09-18T00:18:18.388Z,-50
2016-09-18T00:19:18.400Z,-50
2016-09-18T00:20:18.376Z,-48
2016-09-18T00:21:18.383Z,-50
2016-09-18T00:22:18.355Z,-50
2016-09-18T00:23:18.387Z,-50
2016-09-18T00:24:18.387Z,-49
2016-09-18T00:25:18.361Z,-49
2016-09-18T00:26:18.367Z,-49
2016-09-18T00:27:18.393Z,-50
2016-09-18T00:28:18.387Z,-50
2016-09-18T00:29:18.361Z,-49
2016-09-18T00:30:18.377Z,-49
2016-09-18T00:31:18.402Z,-49
2016-09-18T00:32:18.387Z,-45
2016-09-18T00:33:18.399Z,-48
2016-09-18T00:34:18.409Z,-48
2016-09-18T00:35:18.458Z,-48
2016-09-18T00:36:18.492Z,-51
2016-09-18T00:37:18.403Z,-49
2016-09-18T00:38:18.367Z,-49
2016-09-18T00:39:18.436Z,-48
2016-09-18T00:40:18.386Z,-48
2016-09-18T00:41:18.362Z,-48
2016-09-18T00:42:18.406Z,-48
2016-09-18T00:43:18.393Z,-50
2016-09-18T00:44:18.397Z,-50
2016-09-18T00:45:18.450Z,-49
2016-09-18T00:46:18.410Z,-49
2016-09-18T00:47:18.387Z,-49
2016-09-18T00:48:18.349Z,-48
2016-09-18T00:49:18.386Z,-49
2016-09-18T00:50:18.378Z,-49
2016-09-18T00:51:18.401Z,-48
2016-09-18T00:52:18.370Z,-49
2016-09-18T00:53:18.383Z,-49
2016-09-18T00:54:18.351Z,-48
2016-09-18T00:55:18.386Z,-48
2016-09-18T00:56:18.363Z,-49
2016-09-18T00:57:18.369Z,-48
2016-09-18T00:58:18.438Z,-48
2016-09-18T00:59:18.435Z,-49
2016-09-18T01:00:18.396Z,-49
2016-09-18T01:01:18.373Z,-48
2016-09-18T01:02:18.390Z,-48
2016-09-18T01:03:18.404Z,-48
2016-09-18T01:04:18.396Z,-49
2016-09-18T01:05:18.409Z,-48
2016-09-18T01:06:18.421Z,-48
2016-09-18T01:07:18.474Z,-48
2016-09-18T01:08:18.444Z,-48
2016-09-18T01:09:18.383Z,-48
2016-09-18T01:10:18.401Z,-48
2016-09-18T01:11:18.377Z,-48
2016-09-18T01:12:18.390Z,-48
2016-09-18T01:13:18.407Z,-48
2016-09-18T01:14:18.402Z,-48
2016-09-18T01:15:18.528Z,-47
2016-09-18T01:16:18.387Z,-46
2016-09-18T01:17:18.391Z,-47
2016-09-18T01:18:18.367Z,-48
2016-09-18T01:19:18.434Z,-48
2016-09-18T01:20:18.428Z,-48
2016-09-18T01:21:18.478Z,-47
2016-09-18T01:22:18.451Z,-47
2016-09-18T01:23:18.416Z,-48
2016-09-18T01:24:18.386Z,-48
2016-09-18T01:25:18.476Z,-47
2016-09-18T01:26:18.406Z,-47
2016-09-18T01:27:18.433Z,-47
2016-09-18T01:28:18.410Z,-48
2016-09-18T01:29:18.428Z,-47
2016-09-18T01:30:18.406Z,-48
2016-09-18T01:31:18.417Z,-48
2016-09-18T01:32:18.406Z,-48
2016-09-18T01:33:18.463Z,-48
2016-09-18T01:34:18.460Z,-47
2016-09-18T01:35:18.445Z,-48
2016-09-18T01:36:18.429Z,-48
2016-09-18T01:37:18.501Z,-48
2016-09-18T01:38:18.489Z,-48
2016-09-18T01:39:18.576Z,-48
2016-09-18T01:40:18.419Z,-48
2016-09-18T01:41:18.462Z,-48
2016-09-18T01:42:18.514Z,-48
2016-09-18T01:43:18.472Z,-50
2016-09-18T01:44:18.492Z,-49
2016-09-18T01:45:18.483Z,-49
2016-09-18T01:46:18.465Z,-49
2016-09-18T01:47:18.414Z,-50
2016-09-18T01:48:18.451Z,-50
2016-09-18T01:49:18.422Z,-48
2016-09-18T01:50:18.434Z,-48
2016-09-18T01:51:18.409Z,-48
2016-09-18T01:52:18.434Z,-48
2016-09-18T01:53:18.439Z,-48
2016-09-18T01:54:18.430Z,-48
2016-09-18T01:55:18.440Z,-47
2016-09-18T01:56:18.419Z,-48
2016-09-18T01:57:18.456Z,-50
2016-09-18T01:58:18.501Z,-50
2016-09-18T01:59:18.464Z,-50
2016-09-18T02:00:18.427Z,-48
2016-09-18T02:01:18.492Z,-49
2016-09-18T02:02:18.482Z,-47
2016-09-18T02:03:18.473Z,-47
2016-09-18T02:04:18.472Z,-50
2016-09-18T02:05:18.456Z,-49
2016-09-18T02:06:18.488Z,-51
2016-09-18T02:07:18.479Z,-51
2016-09-18T02:08:18.472Z,-49
2016-09-18T02:09:18.493Z,-50
2016-09-18T02:10:18.459Z,-50
2016-09-18T02:11:18.466Z,-50
2016-09-18T02:12:18.463Z,-50
2016-09-18T02:13:18.488Z,-48
2016-09-18T02:14:18.489Z,-48
2016-09-18T02:15:18.448Z,-48
2016-09-18T02:16:18.454Z,-50
2016-09-18T02:17:18.446Z,-52
2016-09-18T02:18:18.498Z,-52
2016-09-18T02:19:18.446Z,-51
2016-09-18T02:20:18.478Z,-51
2016-09-18T02:21:18.488Z,-51
2016-09-18T02:22:18.518Z,-49
2016-09-18T02:23:18.525Z,-49
2016-09-18T02:24:18.491Z,-50
2016-09-18T02:25:18.515Z,-49
2016-09-18T02:26:18.498Z,-50
2016-09-18T02:27:18.480Z,-50
2016-09-18T02:28:18.479Z,-49
2016-09-18T02:29:18.518Z,-50
2016-09-18T02:30:18.482Z,-50
2016-09-18T02:31:18.484Z,-50
2016-09-18T02:32:18.565Z,-49
2016-09-18T02:33:18.504Z,-50
2016-09-18T02:34:18.545Z,-50
2016-09-18T02:35:18.494Z,-49
2016-09-18T02:36:18.472Z,-50
2016-09-18T02:37:18.542Z,-50
2016-09-18T02:38:18.469Z,-50
2016-09-18T02:39:18.564Z,-50
2016-09-18T02:40:18.485Z,-50
2016-09-18T02:41:18.471Z,-50
2016-09-18T02:42:18.481Z,-50
2016-09-18T02:43:18.481Z,-50
2016-09-18T02:44:18.505Z,-49
2016-09-18T02:45:18.489Z,-49
2016-09-18T02:46:18.511Z,-50
2016-09-18T02:47:18.482Z,-47
2016-09-18T02:48:18.521Z,-50
2016-09-18T02:49:18.491Z,-50
2016-09-18T02:50:18.488Z,-50
2016-09-18T02:51:18.549Z,-50
2016-09-18T02:52:18.494Z,-49
2016-09-18T02:53:18.507Z,-49
2016-09-18T02:54:18.546Z,-48
2016-09-18T02:55:18.506Z,-49
2016-09-18T02:56:18.527Z,-50
2016-09-18T02:57:18.527Z,-50
2016-09-18T02:58:18.495Z,-50
2016-09-18T02:59:18.505Z,-50
2016-09-18T03:00:18.511Z,-50
2016-09-18T03:01:18.514Z,-49
2016-09-18T03:02:18.533Z,-49
2016-09-18T03:03:18.483Z,-49
2016-09-18T03:04:18.510Z,-49
2016-09-18T03:05:18.518Z,-50
2016-09-18T03:06:18.569Z,-49
2016-09-18T03:07:18.617Z,-50
2016-09-18T03:08:18.482Z,-49
2016-09-18T03:09:18.506Z,-50
2016-09-18T03:10:18.516Z,-47
2016-09-18T03:11:18.507Z,-50
2016-09-18T03:12:18.527Z,-52
2016-09-18T03:13:18.532Z,-49
2016-09-18T03:14:18.542Z,-49
2016-09-18T03:15:18.594Z,-50
2016-09-18T03:16:18.585Z,-49
2016-09-18T03:17:18.569Z,-51
2016-09-18T03:18:18.569Z,-51
2016-09-18T03:19:18.521Z,-49
2016-09-18T03:20:18.503Z,-49
2016-09-18T03:21:18.524Z,-49
2016-09-18T03:22:18.552Z,-49
2016-09-18T03:23:18.542Z,-50
2016-09-18T03:24:18.531Z,-49
2016-09-18T03:25:18.541Z,-50
2016-09-18T03:26:18.591Z,-51
2016-09-18T03:27:18.591Z,-49
2016-09-18T03:28:18.579Z,-46
2016-09-18T03:29:18.547Z,-48
2016-09-18T03:30:18.562Z,-47
2016-09-18T03:31:18.606Z,-45
2016-09-18T03:32:18.581Z,-48
2016-09-18T03:33:18.517Z,-48
2016-09-18T03:34:18.573Z,-48
2016-09-18T03:35:18.511Z,-50
2016-09-18T03:36:18.543Z,-50
2016-09-18T03:37:18.536Z,-50
2016-09-18T03:38:18.540Z,-50
2016-09-18T03:39:18.577Z,-49
2016-09-18T03:40:18.539Z,-50
2016-09-18T03:41:18.551Z,-50
2016-09-18T03:42:18.542Z,-50
2016-09-18T03:43:18.551Z,-50
2016-09-18T03:44:18.581Z,-47
2016-09-18T03:45:18.539Z,-50
2016-09-18T03:46:18.608Z,-50
2016-09-18T03:47:18.531Z,-50
2016-09-18T03:48:18.501Z,-48
2016-09-18T03:49:18.559Z,-48
2016-09-18T03:50:18.556Z,-48
2016-09-18T03:51:18.521Z,-48
2016-09-18T03:52:18.563Z,-48
2016-09-18T03:53:18.588Z,-48
2016-09-18T03:54:18.530Z,-48
2016-09-18T03:55:18.546Z,-48
2016-09-18T03:56:18.553Z,-48
2016-09-18T03:57:18.562Z,-48
2016-09-18T03:58:18.548Z,-48
2016-09-18T03:59:18.543Z,-47
2016-09-18T04:00:18.565Z,-48
2016-09-18T04:01:18.549Z,-48
2016-09-18T04:02:18.605Z,-48
2016-09-18T04:03:18.560Z,-48
2016-09-18T04:04:18.577Z,-48
2016-09-18T04:05:18.526Z,-48
2016-09-18T04:06:18.575Z,-47
2016-09-18T04:07:18.550Z,-48
2016-09-18T04:08:18.591Z,-48
2016-09-18T04:09:18.569Z,-47
2016-09-18T04:10:18.566Z,-47
2016-09-18T04:11:18.562Z,-47
2016-09-18T04:12:18.558Z,-47
2016-09-18T04:13:18.560Z,-47
2016-09-18T04:14:18.593Z,-47
2016-09-18T04:15:18.579Z,-47
2016-09-18T04:16:18.593Z,-48
2016-09-18T04:17:18.533Z,-48
2016-09-18T04:18:18.576Z,-47
2016-09-18T04:19:18.571Z,-48
2016-09-18T04:20:18.594Z,-52
2016-09-18T04:21:18.588Z,-49
2016-09-18T04:22:18.573Z,-52
2016-09-18T04:23:18.590Z,-51
2016-09-18T04:24:18.571Z,-48
2016-09-18T04:25:18.568Z,-48
2016-09-18T04:26:18.591Z,-48
2016-09-18T04:27:18.630Z,-48
2016-09-18T04:28:18.603Z,-49
2016-09-18T04:29:18.607Z,-49
2016-09-18T04:30:18.593Z,-49
2016-09-18T04:31:18.608Z,-48
2016-09-18T04:32:18.578Z,-48
2016-09-18T04:33:18.612Z,-48
2016-09-18T04:34:18.587Z,-48
2016-09-18T04:35:18.614Z,-48
2016-09-18T04:36:18.615Z,-48
2016-09-18T04:37:18.610Z,-48
2016-09-18T04:38:18.600Z,-48
2016-09-18T04:39:18.609Z,-48
2016-09-18T04:40:18.616Z,-48
2016-09-18T04:41:19.778Z,-50
2016-09-18T04:42:18.623Z,-50
2016-09-18T04:43:18.685Z,-49
2016-09-18T04:44:18.619Z,-50
2016-09-18T04:45:18.657Z,-49
2016-09-18T04:46:18.591Z,-49
2016-09-18T04:47:18.603Z,-50
2016-09-18T04:48:18.637Z,-49
2016-09-18T04:49:18.623Z,-47
2016-09-18T04:50:18.579Z,-50
2016-09-18T04:51:18.654Z,-50
2016-09-18T04:52:18.635Z,-49
2016-09-18T04:53:18.634Z,-49
2016-09-18T04:54:18.632Z,-49
2016-09-18T04:55:18.645Z,-49
2016-09-18T04:56:18.650Z,-49
2016-09-18T04:57:18.646Z,-50
2016-09-18T04:58:18.665Z,-50
2016-09-18T04:59:18.613Z,-50
2016-09-18T05:00:18.608Z,-51
2016-09-18T05:01:18.613Z,-51
2016-09-18T05:02:18.636Z,-50
2016-09-18T05:03:18.685Z,-50
2016-09-18T05:04:18.664Z,-51
2016-09-18T05:05:18.664Z,-50
2016-09-18T05:06:18.611Z,-50
2016-09-18T05:07:18.664Z,-50
2016-09-18T05:08:18.620Z,-51
2016-09-18T05:09:18.633Z,-50
2016-09-18T05:10:18.623Z,-49
2016-09-18T05:11:18.648Z,-49
2016-09-18T05:12:18.646Z,-49
2016-09-18T05:13:18.658Z,-49
2016-09-18T05:14:18.662Z,-49
2016-09-18T05:15:18.647Z,-49
2016-09-18T05:16:18.616Z,-49
2016-09-18T05:17:18.655Z,-49
2016-09-18T05:18:18.717Z,-50
2016-09-18T05:19:18.673Z,-47
2016-09-18T05:20:18.622Z,-47
2016-09-18T05:21:18.631Z,-47
2016-09-18T05:22:18.671Z,-47
2016-09-18T05:23:18.652Z,-48
2016-09-18T05:24:18.655Z,-48
2016-09-18T05:25:18.663Z,-48
2016-09-18T05:26:18.654Z,-48
2016-09-18T05:27:18.641Z,-48
2016-09-18T05:28:18.670Z,-48
2016-09-18T05:29:18.655Z,-48
2016-09-18T05:30:18.667Z,-48
2016-09-18T05:31:18.613Z,-50
2016-09-18T05:32:18.661Z,-51
2016-09-18T05:33:18.699Z,-51
2016-09-18T05:34:18.660Z,-50
2016-09-18T05:35:18.709Z,-50
2016-09-18T05:36:18.644Z,-50
2016-09-18T05:37:18.664Z,-50
2016-09-18T05:38:18.632Z,-50
2016-09-18T05:39:18.650Z,-50
2016-09-18T05:40:18.639Z,-46
2016-09-18T05:41:18.693Z,-50
2016-09-18T05:42:18.647Z,-49
2016-09-18T05:43:18.687Z,-50
2016-09-18T05:44:18.675Z,-50
2016-09-18T05:45:18.682Z,-49
2016-09-18T05:46:18.675Z,-48
2016-09-18T05:47:18.665Z,-48
2016-09-18T05:48:18.661Z,-48
2016-09-18T05:49:18.648Z,-48
2016-09-18T05:50:18.682Z,-50
2016-09-18T05:51:18.662Z,-49
2016-09-18T05:52:18.655Z,-50
2016-09-18T05:53:18.646Z,-49
2016-09-18T05:54:18.683Z,-50
2016-09-18T05:55:18.677Z,-49
2016-09-18T05:56:18.664Z,-49
2016-09-18T05:57:18.689Z,-50
2016-09-18T05:58:18.689Z,-50
2016-09-18T05:59:18.661Z,-49
2016-09-18T06:00:18.665Z,-49
2016-09-18T06:01:18.673Z,-49
2016-09-18T06:02:18.715Z,-50
2016-09-18T06:03:18.677Z,-50
2016-09-18T06:04:18.713Z,-49
2016-09-18T06:05:18.692Z,-48
2016-09-18T06:06:18.691Z,-47
2016-09-18T06:07:18.661Z,-48
2016-09-18T06:08:18.702Z,-48
2016-09-18T06:09:18.676Z,-48
2016-09-18T06:10:18.709Z,-45
2016-09-18T06:11:18.718Z,-48
2016-09-18T06:12:18.666Z,-48
2016-09-18T06:13:18.692Z,-49
2016-09-18T06:14:18.712Z,-49
2016-09-18T06:15:18.714Z,-50
2016-09-18T06:16:18.699Z,-49
2016-09-18T06:17:18.675Z,-49
2016-09-18T06:18:18.677Z,-49
2016-09-18T06:19:18.686Z,-49
2016-09-18T06:20:18.666Z,-49
2016-09-18T06:21:18.705Z,-47
2016-09-18T06:22:18.712Z,-50
2016-09-18T06:23:18.699Z,-49
2016-09-18T06:24:18.705Z,-49
2016-09-18T06:25:18.684Z,-49
2016-09-18T06:26:18.692Z,-49
2016-09-18T06:27:18.700Z,-50
2016-09-18T06:28:18.687Z,-50
2016-09-18T06:29:18.685Z,-49
2016-09-18T06:30:18.703Z,-50
2016-09-18T06:31:18.669Z,-49
2016-09-18T06:32:18.772Z,-49
2016-09-18T06:33:18.721Z,-49
2016-09-18T06:34:18.788Z,-50
2016-09-18T06:35:18.855Z,-50
2016-09-18T06:36:18.830Z,-51
2016-09-18T06:37:18.737Z,-50
2016-09-18T06:38:18.728Z,-48
2016-09-18T06:39:18.777Z,-48
2016-09-18T06:40:18.769Z,-50
2016-09-18T06:41:18.734Z,-50
2016-09-18T06:42:18.778Z,-49
2016-09-18T06:43:18.727Z,-49
2016-09-18T06:44:18.748Z,-48
2016-09-18T06:45:18.829Z,-45
2016-09-18T06:46:18.776Z,-48
2016-09-18T06:47:18.759Z,-50
2016-09-18T06:48:18.716Z,-52
2016-09-18T06:49:18.740Z,-50
2016-09-18T06:50:18.729Z,-50
2016-09-18T06:51:18.724Z,-50
2016-09-18T06:52:18.772Z,-48
2016-09-18T06:53:18.799Z,-48
2016-09-18T06:54:18.747Z,-48
2016-09-18T06:55:18.715Z,-48
2016-09-18T06:56:18.762Z,-48
2016-09-18T06:57:18.750Z,-48
2016-09-18T06:58:18.741Z,-48
2016-09-18T06:59:18.700Z,-48
2016-09-18T07:00:18.769Z,-48
2016-09-18T07:01:18.749Z,-48
2016-09-18T07:02:18.696Z,-48
2016-09-18T07:03:18.789Z,-48
2016-09-18T07:04:18.772Z,-48
2016-09-18T07:05:18.729Z,-48
2016-09-18T07:06:18.795Z,-48
2016-09-18T07:07:18.774Z,-50
2016-09-18T07:08:18.821Z,-51
2016-09-18T07:09:18.779Z,-50
2016-09-18T07:10:18.775Z,-49
2016-09-18T07:11:18.769Z,-50
2016-09-18T07:12:18.728Z,-49
2016-09-18T07:13:18.741Z,-50
2016-09-18T07:14:18.739Z,-50
2016-09-18T07:15:18.750Z,-52
2016-09-18T07:16:18.739Z,-49
2016-09-18T07:17:18.716Z,-49
2016-09-18T07:18:18.696Z,-50
2016-09-18T07:19:18.762Z,-50
2016-09-18T07:20:18.744Z,-50
2016-09-18T07:21:18.714Z,-49
2016-09-18T07:22:18.697Z,-50
2016-09-18T07:23:18.801Z,-50
2016-09-18T07:24:18.764Z,-50
2016-09-18T07:25:18.765Z,-51
2016-09-18T07:26:18.761Z,-48
2016-09-18T07:27:18.730Z,-52
2016-09-18T07:28:18.787Z,-50
2016-09-18T07:29:18.797Z,-49
2016-09-18T07:30:18.800Z,-50
2016-09-18T07:31:18.784Z,-49
2016-09-18T07:32:18.712Z,-46
2016-09-18T07:33:18.760Z,-49
2016-09-18T07:34:18.743Z,-47
2016-09-18T07:35:18.748Z,-49
2016-09-18T07:36:18.788Z,-49
2016-09-18T07:37:18.764Z,-49
2016-09-18T07:38:18.783Z,-49
2016-09-18T07:39:18.791Z,-50
2016-09-18T07:40:18.926Z,-48
2016-09-18T07:41:18.784Z,-50
2016-09-18T07:42:18.757Z,-50
2016-09-18T07:43:18.782Z,-49
2016-09-18T07:44:18.774Z,-50
2016-09-18T07:45:18.788Z,-49
2016-09-18T07:46:18.785Z,-49
2016-09-18T07:47:18.780Z,-50
2016-09-18T07:48:18.784Z,-48
2016-09-18T07:49:18.744Z,-50
2016-09-18T07:50:19.806Z,-51
2016-09-18T07:51:18.810Z,-52
2016-09-18T07:52:18.794Z,-50
2016-09-18T07:53:18.824Z,-52
2016-09-18T07:54:18.837Z,-50
2016-09-18T07:55:18.788Z,-49
2016-09-18T07:56:18.794Z,-50
2016-09-18T07:57:18.771Z,-49
2016-09-18T07:58:18.807Z,-49
2016-09-18T07:59:18.747Z,-50
2016-09-18T08:00:18.769Z,-48
2016-09-18T08:01:18.814Z,-49
2016-09-18T08:02:18.797Z,-48
2016-09-18T08:03:18.999Z,-49
2016-09-18T08:04:18.805Z,-49
2016-09-18T08:05:18.773Z,-49
2016-09-18T08:06:18.766Z,-49
2016-09-18T08:07:18.774Z,-49
2016-09-18T08:08:18.811Z,-50
2016-09-18T08:09:18.795Z,-50
2016-09-18T08:10:18.824Z,-50
2016-09-18T08:11:18.794Z,-51
2016-09-18T08:12:18.790Z,-49
2016-09-18T08:13:18.815Z,-50
2016-09-18T08:14:18.796Z,-50
2016-09-18T08:15:18.791Z,-50
2016-09-18T08:16:18.823Z,-50
2016-09-18T08:17:18.795Z,-50
2016-09-18T08:18:18.852Z,-50
2016-09-18T08:19:18.843Z,-50
2016-09-18T08:20:18.859Z,-50
2016-09-18T08:21:18.873Z,-50
2016-09-18T08:22:18.835Z,-50
2016-09-18T08:23:18.841Z,-50
2016-09-18T08:24:18.829Z,-52
2016-09-18T08:25:18.809Z,-51
2016-09-18T08:26:18.816Z,-49
2016-09-18T08:27:18.791Z,-52
2016-09-18T08:28:18.797Z,-52
2016-09-18T08:29:18.798Z,-52
2016-09-18T08:30:18.769Z,-52
2016-09-18T08:31:18.775Z,-52
2016-09-18T08:32:18.810Z,-51
2016-09-18T08:33:18.840Z,-51
2016-09-18T08:34:18.801Z,-50
2016-09-18T08:35:18.790Z,-50
2016-09-18T08:36:18.794Z,-50
2016-09-18T08:37:18.802Z,-50
2016-09-18T08:38:18.769Z,-50
2016-09-18T08:39:18.852Z,-50
2016-09-18T08:40:18.806Z,-51
2016-09-18T08:41:18.809Z,-50
2016-09-18T08:42:18.802Z,-49
2016-09-18T08:43:18.826Z,-49
2016-09-18T08:44:18.896Z,-49
2016-09-18T08:45:19.526Z,-49
2016-09-18T08:46:18.836Z,-52
2016-09-18T08:47:18.816Z,-52
2016-09-18T08:48:18.843Z,-52
2016-09-18T08:49:18.836Z,-50
2016-09-18T08:50:18.810Z,-51
2016-09-18T08:51:18.802Z,-50
2016-09-18T08:52:18.797Z,-51
2016-09-18T08:53:18.867Z,-50
2016-09-18T08:54:18.812Z,-50
2016-09-18T08:55:18.839Z,-49
2016-09-18T08:56:18.845Z,-50
2016-09-18T08:57:18.872Z,-50
2016-09-18T08:58:18.850Z,-50
2016-09-18T08:59:18.857Z,-51
2016-09-18T09:00:18.910Z,-48
2016-09-18T09:01:18.864Z,-51
2016-09-18T09:02:18.871Z,-50
2016-09-18T09:03:18.921Z,-50
2016-09-18T09:04:18.877Z,-51
2016-09-18T09:05:18.878Z,-50
2016-09-18T09:06:18.922Z,-51
2016-09-18T09:07:18.869Z,-51
2016-09-18T09:08:19.520Z,-50
2016-09-18T09:09:18.873Z,-51
2016-09-18T09:10:18.835Z,-50
2016-09-18T09:11:18.842Z,-50
2016-09-18T09:12:18.866Z,-51
2016-09-18T09:13:18.896Z,-51
2016-09-18T09:14:18.883Z,-51
2016-09-18T09:15:18.861Z,-51
2016-09-18T09:16:18.910Z,-50
2016-09-18T09:17:18.864Z,-50
2016-09-18T09:18:18.938Z,-49
2016-09-18T09:19:18.886Z,-50
2016-09-18T09:20:18.892Z,-49
2016-09-18T09:21:18.825Z,-48
2016-09-18T09:22:18.864Z,-49
2016-09-18T09:23:18.848Z,-49
2016-09-18T09:24:18.920Z,-49
2016-09-18T09:25:18.893Z,-51
2016-09-18T09:26:18.922Z,-50
2016-09-18T09:27:18.878Z,-51
2016-09-18T09:28:18.887Z,-51
2016-09-18T09:29:18.874Z,-52
2016-09-18T09:30:18.942Z,-51
2016-09-18T09:31:18.929Z,-52
2016-09-18T09:32:18.880Z,-52
2016-09-18T09:33:18.902Z,-50
2016-09-18T09:34:18.899Z,-52
2016-09-18T09:35:18.914Z,-52
2016-09-18T09:36:18.932Z,-51
2016-09-18T09:37:18.908Z,-51
2016-09-18T09:38:18.876Z,-51
2016-09-18T09:39:18.912Z,-52
2016-09-18T09:40:18.917Z,-51
2016-09-18T09:41:18.925Z,-51
2016-09-18T09:42:18.915Z,-52
2016-09-18T09:43:18.955Z,-52
2016-09-18T09:44:18.956Z,-51
2016-09-18T09:45:18.949Z,-51
2016-09-18T09:46:18.938Z,-51
2016-09-18T09:47:18.948Z,-49
2016-09-18T09:48:18.916Z,-49
2016-09-18T09:49:18.891Z,-49
2016-09-18T09:50:18.887Z,-49
2016-09-18T09:51:18.918Z,-49
2016-09-18T09:52:18.920Z,-50
2016-09-18T09:53:18.918Z,-49
2016-09-18T09:54:18.944Z,-50
2016-09-18T09:55:18.874Z,-50
2016-09-18T09:56:18.923Z,-49
2016-09-18T09:57:18.873Z,-50
2016-09-18T09:58:18.912Z,-49
2016-09-18T09:59:18.921Z,-50
2016-09-18T10:00:18.910Z,-49
2016-09-18T10:01:18.918Z,-48
2016-09-18T10:02:18.903Z,-49
2016-09-18T10:03:19.311Z,-51
2016-09-18T10:04:18.985Z,-50
2016-09-18T10:05:18.933Z,-51
2016-09-18T10:06:18.896Z,-51
2016-09-18T10:07:18.876Z,-48
2016-09-18T10:08:18.909Z,-49
2016-09-18T10:09:18.950Z,-50
2016-09-18T10:10:18.951Z,-49
2016-09-18T10:11:18.944Z,-50
2016-09-18T10:12:18.953Z,-49
2016-09-18T10:13:19.271Z,-49
2016-09-18T10:14:18.965Z,-50
2016-09-18T10:15:18.915Z,-50
2016-09-18T10:16:18.925Z,-51
2016-09-18T10:17:18.941Z,-50
2016-09-18T10:18:18.890Z,-50
2016-09-18T10:19:18.947Z,-50
2016-09-18T10:20:18.963Z,-53
2016-09-18T10:21:19.018Z,-52
2016-09-18T10:22:18.963Z,-51
2016-09-18T10:23:18.994Z,-50
2016-09-18T10:24:18.929Z,-51
2016-09-18T10:25:19.069Z,-51
2016-09-18T10:26:19.007Z,-50
2016-09-18T10:27:19.142Z,-53
2016-09-18T10:28:18.968Z,-52
2016-09-18T10:29:18.947Z,-51
2016-09-18T10:30:19.001Z,-53
2016-09-18T10:31:18.972Z,-53
2016-09-18T10:32:18.998Z,-53
2016-09-18T10:33:18.941Z,-48
2016-09-18T10:34:18.934Z,-50
2016-09-18T10:35:19.664Z,-51
2016-09-18T10:36:18.970Z,-52
2016-09-18T10:37:19.017Z,-52
2016-09-18T10:38:18.977Z,-51
2016-09-18T10:39:18.952Z,-52
2016-09-18T10:40:18.947Z,-51
2016-09-18T10:41:19.040Z,-51
2016-09-18T10:42:18.944Z,-50
2016-09-18T10:43:18.938Z,-50
2016-09-18T10:44:18.944Z,-50
2016-09-18T10:45:18.979Z,-50
2016-09-18T10:46:18.970Z,-50
2016-09-18T10:47:18.995Z,-50
2016-09-18T10:48:18.967Z,-50
2016-09-18T10:49:18.966Z,-50
2016-09-18T10:50:18.954Z,-50
2016-09-18T10:51:18.971Z,-50
2016-09-18T10:52:19.010Z,-50
2016-09-18T10:53:18.933Z,-50
2016-09-18T10:54:18.936Z,-50
2016-09-18T10:55:18.957Z,-50
2016-09-18T10:56:18.965Z,-46
2016-09-18T10:57:19.056Z,-51
2016-09-18T10:58:18.956Z,-52
2016-09-18T10:59:19.080Z,-48
2016-09-18T11:00:18.963Z,-50
2016-09-18T11:01:18.944Z,-51
2016-09-18T11:02:18.978Z,-51
2016-09-18T11:03:18.982Z,-50
2016-09-18T11:04:18.967Z,-49
2016-09-18T11:05:19.002Z,-51
2016-09-18T11:06:19.016Z,-49
2016-09-18T11:07:19.014Z,-50
2016-09-18T11:08:19.022Z,-50
2016-09-18T11:09:19.019Z,-50
2016-09-18T11:10:19.030Z,-49
2016-09-18T11:11:19.070Z,-49
2016-09-18T11:12:19.010Z,-50
2016-09-18T11:13:19.047Z,-49
2016-09-18T11:14:19.093Z,-49
2016-09-18T11:15:19.097Z,-52
2016-09-18T11:16:19.084Z,-50
2016-09-18T11:17:19.066Z,-50
2016-09-18T11:18:18.991Z,-50
2016-09-18T11:19:19.013Z,-49
2016-09-18T11:20:18.997Z,-49
2016-09-18T11:21:19.050Z,-50
2016-09-18T11:22:19.032Z,-50
2016-09-18T11:23:19.051Z,-50
2016-09-18T11:24:19.033Z,-50
2016-09-18T11:25:19.010Z,-51
2016-09-18T11:26:18.996Z,-50
2016-09-18T11:27:19.001Z,-50
2016-09-18T11:28:19.035Z,-50
2016-09-18T11:29:19.017Z,-50
2016-09-18T11:30:18.990Z,-51
2016-09-18T11:31:18.994Z,-50
2016-09-18T11:32:19.003Z,-48
2016-09-18T11:33:19.081Z,-48
2016-09-18T11:34:18.984Z,-48
2016-09-18T11:35:19.017Z,-48
2016-09-18T11:36:18.958Z,-48
2016-09-18T11:37:18.965Z,-47
2016-09-18T11:38:19.059Z,-47
2016-09-18T11:39:19.021Z,-48
2016-09-18T11:40:19.000Z,-48
2016-09-18T11:41:19.014Z,-49
2016-09-18T11:42:19.022Z,-47
2016-09-18T11:43:19.125Z,-47
2016-09-18T11:44:18.994Z,-48
2016-09-18T11:45:19.020Z,-47
2016-09-18T11:46:18.991Z,-49
2016-09-18T11:47:19.000Z,-48
2016-09-18T11:48:19.023Z,-48
2016-09-18T11:49:19.016Z,-48
2016-09-18T11:50:18.993Z,-48
2016-09-18T11:51:19.032Z,-48
2016-09-18T11:52:19.038Z,-48
2016-09-18T11:53:19.042Z,-47
2016-09-18T11:54:19.069Z,-47
2016-09-18T11:55:19.094Z,-48
2016-09-18T11:56:19.584Z,-50
2016-09-18T11:57:19.013Z,-50
2016-09-18T11:58:19.042Z,-49
2016-09-18T11:59:19.051Z,-49
2016-09-18T12:00:19.027Z,-49
2016-09-18T12:01:18.991Z,-50
2016-09-18T12:02:19.070Z,-49
2016-09-18T12:03:19.070Z,-49
2016-09-18T12:04:19.083Z,-50
2016-09-18T12:05:19.047Z,-49
2016-09-18T12:06:19.084Z,-50
2016-09-18T12:07:19.023Z,-49
2016-09-18T12:08:19.072Z,-50
2016-09-18T12:09:19.042Z,-48
2016-09-18T12:10:18.996Z,-48
2016-09-18T12:11:19.056Z,-48
2016-09-18T12:12:19.015Z,-48
2016-09-18T12:13:19.192Z,-48
2016-09-18T12:14:19.065Z,-48
2016-09-18T12:15:19.068Z,-48
2016-09-18T12:16:19.048Z,-48
2016-09-18T12:17:19.126Z,-48
2016-09-18T12:18:19.093Z,-48
2016-09-18T12:19:19.039Z,-48
2016-09-18T12:20:19.065Z,-48
2016-09-18T12:21:19.090Z,-48
2016-09-18T12:22:19.026Z,-48
2016-09-18T12:23:19.026Z,-48
2016-09-18T12:24:19.086Z,-48
2016-09-18T12:25:19.049Z,-45
2016-09-18T12:26:19.045Z,-48
2016-09-18T12:27:19.112Z,-48
2016-09-18T12:28:19.095Z,-49
2016-09-18T12:29:19.084Z,-50
2016-09-18T12:30:19.062Z,-49
2016-09-18T12:31:19.054Z,-49
2016-09-18T12:32:19.116Z,-49
2016-09-18T12:33:19.051Z,-49
2016-09-18T12:34:19.070Z,-48
2016-09-18T12:35:19.102Z,-52
2016-09-18T12:36:19.113Z,-49
2016-09-18T12:37:19.155Z,-49
2016-09-18T12:38:19.120Z,-48
2016-09-18T12:39:19.176Z,-51
2016-09-18T12:40:19.121Z,-50
2016-09-18T12:41:19.131Z,-49
2016-09-18T12:42:19.110Z,-49
2016-09-18T12:43:19.083Z,-50
2016-09-18T12:44:19.073Z,-50
2016-09-18T12:45:19.070Z,-49
2016-09-18T12:46:19.070Z,-48
2016-09-18T12:47:19.094Z,-49
2016-09-18T12:48:19.080Z,-49
2016-09-18T12:49:19.207Z,-50
2016-09-18T12:50:19.124Z,-49
2016-09-18T12:51:19.105Z,-50
2016-09-18T12:52:19.057Z,-47
2016-09-18T12:53:19.524Z,-47
2016-09-18T12:54:19.084Z,-47
2016-09-18T12:55:19.129Z,-47
2016-09-18T12:56:19.110Z,-48
2016-09-18T12:57:19.119Z,-48
2016-09-18T12:58:19.055Z,-48
2016-09-18T12:59:19.066Z,-48
2016-09-18T13:00:19.088Z,-48
2016-09-18T13:01:19.272Z,-48
2016-09-18T13:02:19.101Z,-48
2016-09-18T13:03:19.130Z,-48
2016-09-18T13:04:19.065Z,-48
2016-09-18T13:05:19.139Z,-47
2016-09-18T13:06:19.079Z,-48
2016-09-18T13:07:19.119Z,-48
2016-09-18T13:08:19.134Z,-48
2016-09-18T13:09:19.196Z,-47
2016-09-18T13:10:19.146Z,-48
2016-09-18T13:11:19.109Z,-48
2016-09-18T13:12:19.160Z,-48
2016-09-18T13:13:19.081Z,-48
2016-09-18T13:14:19.144Z,-48
2016-09-18T13:15:19.108Z,-46
2016-09-18T13:16:19.100Z,-48
2016-09-18T13:17:19.356Z,-47
2016-09-18T13:18:19.119Z,-47
2016-09-18T13:19:19.177Z,-49
2016-09-18T13:20:19.657Z,-49
2016-09-18T13:21:19.093Z,-54
2016-09-18T13:22:19.126Z,-53
2016-09-18T13:23:19.171Z,-53
2016-09-18T13:24:19.167Z,-54
2016-09-18T13:25:19.155Z,-49
2016-09-18T13:26:19.165Z,-52
2016-09-18T13:27:19.078Z,-53
2016-09-18T13:28:19.113Z,-52
2016-09-18T13:29:19.109Z,-54
2016-09-18T13:30:19.099Z,-53
2016-09-18T13:31:19.109Z,-53
2016-09-18T13:32:19.130Z,-53
2016-09-18T13:33:19.133Z,-53
2016-09-18T13:34:19.096Z,-53
2016-09-18T13:35:19.164Z,-53
2016-09-18T13:36:19.129Z,-55
2016-09-18T13:37:19.145Z,-54
2016-09-18T13:38:19.238Z,-53
2016-09-18T13:39:19.178Z,-52
2016-09-18T13:40:19.430Z,-55
2016-09-18T13:41:19.480Z,-53
2016-09-18T13:42:19.152Z,-53
2016-09-18T13:43:19.134Z,-53
2016-09-18T13:44:19.151Z,-48
2016-09-18T13:45:19.155Z,-53
2016-09-18T13:46:19.137Z,-54